Latest Weather Observations for Mount Hotham

IDV60801

Issued at 8:02 pm EST Wednesday 24 August 2016 (issued every 30 minutes, with the page automatically refreshed every 10 minutes)

About weather observations | Map of weather stations | Latest weather observations for VIC | Other Formats
Station Details ID: 083085 Name: MOUNT HOTHAM Lat: -36.98 Lon: 147.13 Height: 1849.0 m
Data from the previous 72 hours. | See also: Recent months at Mount Hotham
Date/Time
EST
Temp
°C
App
Temp
°C
Dew
Point
°C
Rel
Hum
%
Delta-T
°C
Wind Press
QNH
hPa
Press
MSL
hPa
Rain since
9am
mm
Dir  Spd
km/h
Gust
km/h
Spd
kts
Gust
kts
24/08:00pm -2.4 -4.7 -2.7 98 0.0 CALM 0 0 0 0 - - 9.8
24/07:30pm -2.4 -4.7 -2.5 99 -0.1 CALM 0 0 0 0 - - 9.8
24/07:00pm -2.1 -4.4 -2.2 99 -0.1 CALM 0 0 0 0 - - 9.8
24/06:30pm -1.8 -4.0 -1.9 99 -0.1 CALM 0 0 0 0 - - 9.8
24/06:00pm -1.4 -3.6 -1.5 99 0.0 CALM 0 0 0 0 - - 9.8
24/05:30pm -1.0 -3.1 -1.1 99 0.0 CALM 0 0 0 0 - - 9.8
24/05:00pm -0.6 -2.7 -0.7 99 0.0 CALM 0 0 0 0 - - 9.8
24/04:30pm -0.4 -2.5 -0.5 99 0.0 CALM 0 0 0 0 - - 9.8
24/04:00pm -0.2 -2.2 -0.3 99 0.0 CALM 0 0 0 0 - - 9.8
24/03:30pm -0.2 -2.2 -0.3 99 0.0 CALM 0 0 0 0 - - 9.8
24/03:00pm -0.1 -2.1 -0.2 99 0.0 CALM 0 0 0 0 - - 9.8
24/02:30pm -0.1 -2.1 -0.2 99 0.0 CALM 0 0 0 0 - - 9.8
24/02:00pm -0.3 -2.3 -0.4 99 0.0 CALM 0 0 0 0 - - 9.8
24/01:30pm -0.1 -2.1 -0.2 99 0.0 CALM 0 0 0 0 - - 9.2
24/01:00pm -0.3 -2.3 -0.4 99 0.0 CALM 0 0 0 0 - - 7.2
24/12:30pm -0.3 -2.3 -0.4 99 0.0 CALM 0 0 0 0 - - 5.4
24/12:00pm -0.6 -2.7 -0.7 99 0.0 CALM 0 0 0 0 - - 3.0
24/11:30am -0.5 -2.6 -0.6 99 0.0 CALM 0 0 0 0 - - 1.0
24/11:00am -0.6 -2.7 -0.7 99 0.0 CALM 0 0 0 0 - - 0.2
24/10:30am -0.7 -2.8 -0.8 99 0.0 CALM 0 0 0 0 - - 0.0
24/10:00am -1.3 -3.5 -1.4 99 0.0 CALM 0 0 0 0 - - 0.0
24/09:30am -1.7 -4.0 -2.0 98 0.0 CALM 0 0 0 0 - - 0.0
24/09:00am -2.5 -4.9 -2.9 97 0.0 CALM 0 0 0 0 - - 5.0
24/08:30am -2.9 -5.3 -3.3 97 0.0 CALM 0 0 0 0 - - 5.0
24/08:00am -3.2 -5.7 -3.6 97 0.0 CALM 0 0 0 0 - - 5.0
24/07:30am -3.3 -5.8 -3.8 96 0.0 CALM 0 0 0 0 - - 5.0
24/07:00am -4.4 -7.0 -5.1 95 0.0 CALM 0 0 0 0 - - 5.0
24/06:30am -4.7 -7.3 -5.4 95 0.0 CALM 0 0 0 0 - - 5.0
24/06:00am -4.8 -7.5 -5.6 94 0.1 CALM 0 0 0 0 - - 5.0
24/05:30am -4.6 -7.2 -5.3 95 0.0 CALM 0 0 0 0 - - 5.0
24/05:00am -4.6 -7.2 -5.3 95 0.0 CALM 0 0 0 0 - - 5.0
24/04:30am -4.5 -7.1 -5.2 95 0.0 CALM 0 0 0 0 - - 5.0
24/04:00am -4.5 -7.1 -5.2 95 0.0 CALM 0 0 0 0 - - 5.0
24/03:30am -4.6 -7.2 -5.3 95 0.0 CALM 0 0 0 0 - - 5.0
24/03:00am -4.5 -7.1 -5.2 95 0.0 CALM 0 0 0 0 - - 5.0
24/02:30am -4.1 -6.7 -4.8 95 0.1 CALM 0 0 0 0 - - 5.0
24/02:00am -4.2 -6.8 -4.9 95 0.1 CALM 0 0 0 0 - - 5.0
24/01:30am -3.7 -6.2 -4.2 96 0.0 CALM 0 0 0 0 - - 5.0
24/01:00am -3.6 -6.1 -4.1 96 0.0 CALM 0 0 0 0 - - 5.0
24/12:30am -3.8 -6.3 -4.3 96 0.0 CALM 0 0 0 0 - - 5.0
24/12:00am -3.7 -6.2 -4.2 96 0.0 CALM 0 0 0 0 - - 5.0
 
Date/Time
EST
Temp
°C
App
Temp
°C
Dew
Point
°C
Rel
Hum
%
Delta-T
°C
Wind Press
QNH
hPa
Press
MSL
hPa
Rain since
9am
mm
Dir  Spd
km/h
Gust
km/h
Spd
kts
Gust
kts
23/11:30pm -3.7 -6.2 -4.2 96 0.0 CALM 0 0 0 0 - - 5.0
23/11:00pm -4.0 -6.6 -4.7 95 0.1 CALM 0 0 0 0 - - 5.0
23/10:30pm -3.7 -6.2 -4.2 96 0.0 CALM 0 0 0 0 - - 5.0
23/10:00pm -3.5 -6.0 -4.0 96 0.0 CALM 0 0 0 0 - - 5.0
23/09:30pm -2.8 -5.2 -3.2 97 0.0 CALM 0 0 0 0 - - 5.0
23/09:00pm -2.5 -4.9 -2.8 98 0.0 CALM 0 0 0 0 - - 5.0
23/08:30pm -2.4 -4.7 -2.7 98 0.0 CALM 0 0 0 0 - - 5.0
23/08:00pm -2.3 -4.6 -2.6 98 0.0 CALM 0 0 0 0 - - 5.0
23/07:30pm -1.7 -3.9 -1.8 99 0.0 CALM 0 0 0 0 - - 5.0
23/07:00pm -1.7 -3.9 -1.8 99 0.0 CALM 0 0 0 0 - - 5.0
23/06:30pm -2.2 -4.5 -2.3 99 -0.1 CALM 0 0 0 0 - - 5.0
23/06:00pm -1.8 -4.0 -1.9 99 -0.1 CALM 0 0 0 0 - - 5.0
23/05:30pm -1.4 -3.6 -1.5 99 0.0 CALM 0 0 0 0 - - 5.0
23/05:00pm -0.7 -2.8 -0.8 99 0.0 CALM 0 0 0 0 - - 5.0
23/04:30pm -0.3 -2.3 -0.4 99 0.0 CALM 0 0 0 0 - - 5.0
23/04:00pm -0.2 -2.2 -0.3 99 0.0 CALM 0 0 0 0 - - 5.0
23/03:30pm -0.2 -2.2 -0.3 99 0.0 CALM 0 0 0 0 - - 4.6
23/03:00pm -0.1 -2.1 -0.2 99 0.0 CALM 0 0 0 0 - - 3.8
23/02:30pm -0.2 -2.2 -0.3 99 0.0 CALM 0 0 0 0 - - 3.0
23/02:00pm -0.2 -2.2 -0.3 99 0.0 CALM 0 0 0 0 - - 1.8
23/01:30pm -0.5 -2.6 -0.6 99 0.0 CALM 0 0 0 0 - - 1.0
23/01:00pm -0.5 -2.6 -0.6 99 0.0 CALM 0 0 0 0 - - 0.2
23/12:30pm -0.7 -2.8 -0.8 99 0.0 CALM 0 0 0 0 - - 0.2
23/12:00pm -0.9 -3.0 -1.0 99 0.0 CALM 0 0 0 0 - - 0.2
23/11:30am -1.0 -3.1 -1.1 99 0.0 CALM 0 0 0 0 - - 0.2
23/11:00am -1.9 -4.2 -2.2 98 0.0 CALM 0 0 0 0 - - 0.2
23/10:30am -2.1 -4.4 -2.4 98 0.0 CALM 0 0 0 0 - - 0.0
23/10:00am -2.2 -4.5 -2.5 98 0.0 CALM 0 0 0 0 - - 0.0
23/09:30am -2.3 -4.6 -2.6 98 0.0 CALM 0 0 0 0 - - 0.0
23/09:00am -2.6 -5.0 -3.0 97 0.0 CALM 0 0 0 0 - - 1.0
23/08:30am -3.1 -5.6 -3.6 96 0.0 CALM 0 0 0 0 - - 1.0
23/08:00am -3.6 -6.1 -4.1 96 0.0 CALM 0 0 0 0 - - 1.0
23/07:30am -3.4 -5.9 -3.9 96 0.0 CALM 0 0 0 0 - - 1.0
23/07:00am -3.4 -5.9 -3.9 96 0.0 CALM 0 0 0 0 - - 1.0
23/06:30am -3.4 -5.9 -3.9 96 0.0 CALM 0 0 0 0 - - 1.0
23/06:00am -3.2 -5.7 -3.7 96 0.0 CALM 0 0 0 0 - - 1.0
23/05:30am -3.6 -6.1 -4.1 96 0.0 CALM 0 0 0 0 - - 1.0
23/05:00am -3.3 -5.8 -3.8 96 0.0 CALM 0 0 0 0 - - 1.0
23/04:30am -3.3 -5.8 -3.8 96 0.0 CALM 0 0 0 0 - - 1.0
23/04:00am -3.2 -5.7 -3.7 96 0.0 CALM 0 0 0 0 - - 1.0
23/03:30am -3.2 -5.7 -3.7 96 0.0 CALM 0 0 0 0 - - 1.0
23/03:00am -3.1 -5.5 -3.5 97 0.0 CALM 0 0 0 0 - - 1.0
23/02:30am -3.2 -5.7 -3.7 96 0.0 CALM 0 0 0 0 - - 1.0
23/02:00am -3.4 -5.9 -3.9 96 0.0 CALM 0 0 0 0 - - 1.0
23/01:30am -3.0 -5.4 -3.4 97 0.0 CALM 0 0 0 0 - - 1.0
23/01:00am -2.6 -5.0 -3.0 97 0.0 CALM 0 0 0 0 - - 1.0
23/12:30am -2.9 -5.3 -3.3 97 0.0 CALM 0 0 0 0 - - 1.0
23/12:00am -3.0 -5.4 -3.4 97 0.0 CALM 0 0 0 0 - - 1.0
 
Date/Time
EST
Temp
°C
App
Temp
°C
Dew
Point
°C
Rel
Hum
%
Delta-T
°C
Wind Press
QNH
hPa
Press
MSL
hPa
Rain since
9am
mm
Dir  Spd
km/h
Gust
km/h
Spd
kts
Gust
kts
22/11:30pm -3.1 -5.5 -3.5 97 0.0 CALM 0 0 0 0 - - 1.0
22/11:00pm -2.3 -4.6 -2.6 98 0.0 CALM 0 0 0 0 - - 1.0
22/10:30pm -2.9 -5.3 -3.3 97 0.0 CALM 0 0 0 0 - - 1.0
22/10:00pm -3.3 -5.8 -3.8 96 0.0 CALM 0 0 0 0 - - 1.0
22/09:30pm -3.3 -5.8 -3.7 97 0.0 CALM 0 0 0 0 - - 1.0
22/09:00pm -2.7 -5.1 -3.1 97 0.0 CALM 0 0 0 0 - - 1.0
22/08:30pm -2.4 -4.8 -2.8 97 0.0 CALM 0 0 0 0 - - 1.0
22/08:00pm -2.4 -4.7 -2.7 98 0.0 CALM 0 0 0 0 - - 1.0
22/07:30pm -2.3 -4.6 -2.6 98 0.0 CALM 0 0 0 0 - - 1.0
22/07:00pm -2.3 -4.6 -2.6 98 0.0 CALM 0 0 0 0 - - 1.0
22/06:30pm -2.5 -4.9 -2.8 98 0.0 CALM 0 0 0 0 - - 1.0
22/06:00pm -2.3 -4.6 -2.6 98 0.0 CALM 0 0 0 0 - - 1.0
22/05:30pm -1.6 -3.8 -1.7 99 0.0 CALM 0 0 0 0 - - 1.0
22/05:00pm -1.3 -3.5 -1.4 99 0.0 CALM 0 0 0 0 - - 1.0
22/04:30pm -1.2 -3.4 -1.3 99 0.0 CALM 0 0 0 0 - - 1.0
22/04:00pm -1.2 -3.4 -1.3 99 0.0 CALM 0 0 0 0 - - 1.0
22/03:30pm -1.1 -3.3 -1.2 99 0.0 CALM 0 0 0 0 - - 1.0
22/03:00pm -1.1 -3.3 -1.2 99 0.0 CALM 0 0 0 0 - - 0.8
22/02:30pm -1.0 -3.1 -1.1 99 0.0 CALM 0 0 0 0 - - 0.4
22/02:00pm -1.1 -3.3 -1.2 99 0.0 CALM 0 0 0 0 - - 0.2
22/01:30pm -1.2 -3.4 -1.3 99 0.0 CALM 0 0 0 0 - - 0.2
22/01:00pm -1.0 -3.1 -1.1 99 0.0 CALM 0 0 0 0 - - 0.2
22/12:30pm -1.4 -3.6 -1.5 99 0.0 CALM 0 0 0 0 - - 0.0
22/12:00pm -1.6 -3.8 -1.7 99 0.0 CALM 0 0 0 0 - - 0.0
22/11:30am -1.7 -4.0 -2.0 98 0.0 CALM 0 0 0 0 - - 0.0
22/11:00am -1.8 -4.1 -2.1 98 0.0 CALM 0 0 0 0 - - 0.0
22/10:30am -2.0 -4.3 -2.3 98 0.0 CALM 0 0 0 0 - - 0.0
22/10:00am -2.1 -4.4 -2.4 98 0.0 CALM 0 0 0 0 - - 0.0
22/09:30am -2.3 -4.6 -2.6 98 0.0 CALM 0 0 0 0 - - 0.0
22/09:00am -2.3 -4.6 -2.6 98 0.0 CALM 0 0 0 0 - - 2.2
22/08:30am -2.2 -4.5 -2.5 98 0.0 CALM 0 0 0 0 - - 2.2
22/08:00am -2.2 -4.5 -2.5 98 0.0 CALM 0 0 0 0 - - 2.2
22/07:30am -2.3 -4.6 -2.6 98 0.0 CALM 0 0 0 0 - - 2.2
22/07:00am -2.2 -4.5 -2.5 98 0.0 CALM 0 0 0 0 - - 2.2
22/06:30am -2.3 -4.6 -2.6 98 0.0 CALM 0 0 0 0 - - 2.2
22/06:00am -2.3 -4.6 -2.6 98 0.0 CALM 0 0 0 0 - - 2.2
22/05:30am -2.4 -4.7 -2.7 98 0.0 CALM 0 0 0 0 - - 2.2
22/05:00am -2.4 -4.7 -2.7 98 0.0 CALM 0 0 0 0 - - 2.2
22/04:30am -2.3 -4.6 -2.6 98 0.0 CALM 0 0 0 0 - - 2.2
22/04:00am -1.8 -4.0 -1.9 99 -0.1 CALM 0 0 0 0 - - 2.2
22/03:30am -1.8 -4.0 -1.9 99 -0.1 CALM 0 0 0 0 - - 2.2
22/03:00am -1.9 -4.2 -2.0 99 -0.1 CALM 0 0 0 0 - - 2.2
22/02:30am -1.4 -3.6 -1.5 99 0.0 CALM 0 0 0 0 - - 2.2
22/02:00am -1.1 -3.3 -1.2 99 0.0 CALM 0 0 0 0 - - 2.2
22/01:30am -1.4 -3.6 -1.5 99 0.0 CALM 0 0 0 0 - - 2.2
22/01:00am -1.4 -3.6 -1.5 99 0.0 CALM 0 0 0 0 - - 2.2
22/12:30am -1.2 -3.4 -1.3 99 0.0 CALM 0 0 0 0 - - 2.2
22/12:00am -1.1 -3.3 -1.2 99 0.0 CALM 0 0 0 0 - - 2.2
 
Date/Time
EST
Temp
°C
App
Temp
°C
Dew
Point
°C
Rel
Hum
%
Delta-T
°C
Wind Press
QNH
hPa
Press
MSL
hPa
Rain since
9am
mm
Dir  Spd
km/h
Gust
km/h
Spd
kts
Gust
kts
21/11:30pm -1.1 -3.3 -1.2 99 0.0 CALM 0 0 0 0 - - 2.2
21/11:00pm -1.0 -3.1 -1.1 99 0.0 CALM 0 0 0 0 - - 2.2
21/10:30pm -1.0 -3.1 -1.1 99 0.0 CALM 0 0 0 0 - - 2.2
21/10:00pm -1.1 -3.3 -1.2 99 0.0 CALM 0 0 0 0 - - 2.2
21/09:30pm -1.2 -3.4 -1.3 99 0.0 CALM 0 0 0 0 - - 2.2
21/09:00pm -1.3 -3.5 -1.4 99 0.0 CALM 0 0 0 0 - - 2.2
21/08:30pm -1.7 -3.9 -1.8 99 0.0 CALM 0 0 0 0 - - 2.2

Other Formats:

Comma delimited format used in spreadsheet applications
http://www.bom.gov.au/fwo/IDV60801/IDV60801.94906.axf

JavaScript Object Notation format (JSON) in row-major order
http://www.bom.gov.au/fwo/IDV60801/IDV60801.94906.json